This is the latest recevied weather packets stored in our database for station/object HB9SZU-6. If no packets are shown the sender has not sent any weather packets the latest 10 day(s).
| Time | Temp. | Humidity | Pressure | Rain* | Wind** | Luminosity | Snow |
|---|---|---|---|---|---|---|---|
| 1777569490 | 18.89° C | 53% | 1027.6 hPa | 0 mm | - | - | - |
| 1777568591 | 18.89° C | 53% | 1027.6 hPa | 0 mm | - | - | - |
| 1777567690 | 18.89° C | 53% | 1027.6 hPa | 0 mm | - | - | - |
| 1777566790 | 19.44° C | 53% | 1027.6 hPa | 0 mm | - | - | - |
| 1777565890 | 19.44° C | 53% | 1027.6 hPa | 0 mm | - | - | - |
| 1777564990 | 19.44° C | 53% | 1027.7 hPa | 0 mm | - | - | - |
| 1777564090 | 19.44° C | 53% | 1027.6 hPa | 0 mm | - | - | - |
| 1777563190 | 19.44° C | 53% | 1027.9 hPa | 0 mm | - | - | - |
| 1777562290 | 19.44° C | 53% | 1027.9 hPa | 0 mm | - | - | - |
| 1777561390 | 19.44° C | 53% | 1027.9 hPa | 0 mm | - | - | - |
| 1777560490 | 19.44° C | 52% | 1028.1 hPa | 0 mm | - | - | - |
| 1777559590 | 19.44° C | 53% | 1028.3 hPa | 0 mm | - | - | - |
| 1777558691 | 19.44° C | 53% | 1028.5 hPa | 0 mm | - | - | - |
| 1777557790 | 19.44° C | 53% | 1028.6 hPa | 0 mm | - | - | - |
| 1777556890 | 18.89° C | 54% | 1028.7 hPa | 0 mm | - | - | - |
| 1777555990 | 17.78° C | 54% | 1029.2 hPa | 0 mm | - | - | - |
| 1777555090 | 17.78° C | 54% | 1029.2 hPa | 0 mm | - | - | - |
| 1777554191 | 17.78° C | 54% | 1029.2 hPa | 0 mm | - | - | - |
| 1777553290 | 17.78° C | 54% | 1029.2 hPa | 0 mm | - | - | - |
| 1777552390 | 17.78° C | 54% | 1029.3 hPa | 0 mm | - | - | - |
| 1777551490 | 17.78° C | 54% | 1029.5 hPa | 0 mm | - | - | - |
| 1777550590 | 18.33° C | 56% | 1029.5 hPa | 0 mm | - | - | - |
| 1777549691 | 18.33° C | 57% | 1029.6 hPa | 0 mm | - | - | - |
| 1777548790 | 15.56° C | 62% | 1030.1 hPa | 0 mm | - | - | - |
| 1777547890 | 15.56° C | 62% | 1030.1 hPa | 0 mm | - | - | - |
* Rain latest hour (hover to see other rain measurements)
** Current wind speed in m/s (hover to see current wind gust speed)